Wetterstation Rottenburg Seebronn / 442m msl / http://mut-lambrecht.de
LETZTE AKTUALISIERUNG UM: 18:40 DATUM: Februar 20 2017, time of next update: 18:45
Aktuelles Wettermostly cloudy - light rain/Night Aktuelle Temperatur 7.1°C (44.8°F), Apparent temp 4.2°C
Höchsttemperatur (seit Mitternacht)10.5°C um: 14:17 Tiefsttemperatur (seit Mitternacht)3.4°C um: 00:18
Windgeschwindigkeit (10 Minuten )10.4 kmh (5.6 kts) Windrichtung (Dir) (10 Minuten )WSW (242°)
Windchill Temperatur 5.0°C Windspitzen (letzte Std)24.3 kmh (13.2 kts) um: 18:18
Windspitzen (seit Mitternacht)37.0 kmh (20.0 kts) um: 13:50 Höchstes Windmittel / Minute (seit Mitternacht)19.3 kmh (10.4 kts) um: 16:26
Regenmenge (letzte Std)0.0 mm Regenmenge (seit Mitternacht)0.0 mm (0.00 in.)---
Regenmenge diesen Monat 13.4 mm (0.53 in.) Regenmenge seit Jahresbeginn 35.2 mm (1.39 in.)
Höchste Regenmenge pro Minute (letzte Std)0.0 mm/min Höchste Regenmenge pro Stunde (letzte 6 Std)0.0 mm/stunde
Regenmenge Gestern 0.0 mm Taupunkt 3.2°C (Wet Bulb :5.4°C )
Luftfeuchtigkeit 76 %, Humidex 5.8°C Aktueller Luftdruck (auf Meereshöhe bezogen)1019.4 hPa
Luftdrucktendenz -0.1 hPa (letzte Std) Trend (letzte 1 Std)gleichbleibend
Luftdrucktendenz (letzte 12 Std)-2.3 hPa Luftdrucktendenz (letzte 6 Std)-2.5 hPa

Wetterstations-Bericht: Grafikformat auf GIF umgestellt



Weather report/warning/Metars

Stuttgart-Echterdingen, Germany (EDDS) 48-41N 009-13E 391M
Feb 20, 2017 - 12:20 PM EST / 2017.02.20 1720 UTC
Wind: from the SW (230 degrees) at 10 MPH (9 KT) (direction variable):0
Visibility: greater than 7 mile(s):0
Sky conditions: mostly cloudy
Weather: light rain
Temperature: 46 F (8 C)
Dew Point: 39 F (4 C)
Relative Humidity: 75%
Pressure (altimeter): 30.09 in. Hg (1019 hPa)
ob: EDDS 201720Z 23009KT 170V270 9999 -RA FEW023 BKN050 08/04 Q1019 TEMPO RA
cycle: 17
Karlsruhe, Baden Wurttemberg, Germany (EDSB) 48-46-43N 008-04-47E
Feb 20, 2017 - 12:20 PM EST / 2017.02.20 1720 UTC
Wind: from the SSW (210 degrees) at 14 MPH (12 KT):0
Visibility: 4 mile(s):0
Sky conditions: mostly cloudy
Weather: rain
Temperature: 48 F (9 C)
Dew Point: 42 F (6 C)
Relative Humidity: 81%
Pressure (altimeter): 30.12 in. Hg (1020 hPa)
ob: EDSB 201720Z 21012KT 8000 RA BKN028 09/06 Q1020
cycle: 17
Lahr, CAN-AFB, Germany (EDTL) 48-22-09N 007-49-40E
Feb 20, 2017 - 12:20 PM EST / 2017.02.20 1720 UTC
Wind: from the S (190 degrees) at 13 MPH (11 KT):0
Visibility: greater than 7 mile(s):0
Sky conditions: mostly cloudy
Temperature: 48 F (9 C)
Dew Point: 41 F (5 C)
Relative Humidity: 75%
Pressure (altimeter): 30.18 in. Hg (1022 hPa)
ob: EDTL 201720Z 19011KT 9999 BKN034 09/05 Q1022
cycle: 17
Laupheim, Germany (ETHL) 48-13N 009-55E 550M
Feb 20, 2017 - 12:20 PM EST / 2017.02.20 1720 UTC
Wind: from the WSW (240 degrees) at 14 MPH (12 KT):0
Visibility: greater than 7 mile(s):0
Sky conditions: mostly cloudy
Temperature: 44 F (7 C)
Dew Point: 35 F (2 C)
Relative Humidity: 70%
Pressure (altimeter): 30.12 in. Hg (1020 hPa)
ob: ETHL 201720Z 24012KT 9999 SCT044 BKN110 07/02 Q1020 BLU BLU BECMG WHT
cycle: 17


Klicken Sie hier, um eine Übersicht der Durchschnitts- u. Extremwerte für den Monat zu erhalten


Die Wetterdaten werden alle 30 Sek. gespeichert. Die Datenübertragung findet alle 5 Minuten statt.

Drücken Sie bitte auf "Aktualisieren" in Ihrem Browser, um die aktuellsten Daten zu erhalten.

Created by "Weather Display" software version 10.37S at this start time/date 23:14:12 18.10.2016